« Back
NWS Peachtree City, Ga » Text Product » AHN Terminal Aerodrome Forecast


Printer-friendly Version
Current Version              Previous Versions:   1  2  3  4  5  6  7  8  9  

Terminal Aerodrome Forecast

146
FTUS42 KFFC 040546
TAFAHN
TAF
KAHN 040546Z 0406/0506 00000KT 1/4SM FG OVC002
     FM041400 21006KT 1/2SM FG BKN002
     FM041500 22007KT P6SM BKN006
     FM041800 22010KT P6SM BKN008
     FM042000 22012KT P6SM BKN015
     FM050000 21009KT P6SM BKN025
     FM050300 20008KT P6SM BKN012=

USA.gov is the U.S. government's official web portal to all federal, state and local government web resources and services.